Virtual Norwegian is not affiliated with Norwegian Air Shuttle in any way.
If you are looking for the real "Norwegian", or you wish to book Norwegian flights, please visit Norwegian.com


We use cookies to ensure you get the best experience on our website.   ACCEPT

BIKF - KEF - Keflavik (Keflavik)

General Info Alternate Airport
ICAO: BIKF Elevation: 171 ft ICAO: BIAR
IATA: KEF Country: Iceland IATA: AEY
City: Keflavik Charts: Log in to view charts City: Akureyri
Name: Keflavik Hub: No Name Akureyri
General Info
ICAO: BIKF
IATA: KEF
City: Keflavik
Name: Keflavik
Elevation: 171 ft
Country: Iceland
Charts: Log in to view charts
Hub: No
 
Alternate Airport
ICAO: BIAR
IATA: AEY
City: Akureyri
Name: Akureyri

Weather
201200Z 04008KT 9999 FEW027 BKN041 BKN100 09/06 Q1014
Weather
201200Z 04008KT 9999 FEW027 BKN041 BKN100 09/06 Q1014

NOTAMs
NOTAMs currently unavailable.
NOTAMs
NOTAMs currently unavailable

Route map
Airport
Airport (hub)